createdAt,value
2018-06-29T00:00:16.612Z,72.2
2018-06-29T00:01:16.947Z,72.2
2018-06-29T00:02:17.209Z,72.3
2018-06-29T00:03:16.464Z,72.6
2018-06-29T00:04:16.741Z,72.2
2018-06-29T00:05:17.015Z,72.2
2018-06-29T00:06:16.278Z,72.2
2018-06-29T00:07:16.585Z,72.6
2018-06-29T00:08:16.849Z,72.3
2018-06-29T00:09:17.113Z,72.5
2018-06-29T00:10:16.390Z,72.8
2018-06-29T00:11:16.452Z,72.7
2018-06-29T00:12:16.715Z,72.7
2018-06-29T00:13:16.975Z,72.7
2018-06-29T00:14:17.242Z,73.1
2018-06-29T00:15:16.506Z,73.2
2018-06-29T00:16:16.762Z,73.2
2018-06-29T00:17:17.019Z,73.4
2018-06-29T00:18:16.292Z,73.0
2018-06-29T00:19:16.559Z,73.0
2018-06-29T00:20:17.142Z,73.1
2018-06-29T00:21:16.885Z,73.1
2018-06-29T00:22:17.151Z,72.9
2018-06-29T00:23:16.409Z,73.1
2018-06-29T00:24:16.691Z,73.4
2018-06-29T00:25:16.955Z,73.2
2018-06-29T00:26:17.221Z,73.4
2018-06-29T00:27:16.488Z,73.7
2018-06-29T00:28:16.754Z,73.6
2018-06-29T00:29:17.106Z,73.8
2018-06-29T00:30:16.377Z,73.8
2018-06-29T00:31:16.437Z,73.6
2018-06-29T00:32:16.704Z,73.7
2018-06-29T00:33:16.966Z,74.0
2018-06-29T00:34:17.230Z,74.2
2018-06-29T00:35:16.486Z,74.2
2018-06-29T00:36:17.022Z,74.4
2018-06-29T00:37:16.293Z,74.5
2018-06-29T00:38:16.849Z,74.2
2018-06-29T00:39:17.126Z,74.3
2018-06-29T00:40:16.393Z,74.8
2018-06-29T00:41:16.436Z,75.3
2018-06-29T00:42:16.689Z,74.7
2018-06-29T00:43:16.939Z,74.8
2018-06-29T00:44:17.193Z,75.0
2018-06-29T00:45:16.458Z,74.7
2018-06-29T00:46:16.722Z,74.8
2018-06-29T00:47:16.976Z,75.2
2018-06-29T00:48:17.562Z,75.3
2018-06-29T00:49:16.824Z,75.1
2018-06-29T00:50:17.083Z,75.1
2018-06-29T00:51:17.154Z,75.2
2018-06-29T00:52:16.415Z,75.2
2018-06-29T00:53:16.677Z,75.3
2018-06-29T00:54:16.949Z,75.2
2018-06-29T00:55:17.305Z,75.9
2018-06-29T00:56:16.582Z,76.4
2018-06-29T00:57:16.845Z,76.1
2018-06-29T00:58:17.128Z,75.5
2018-06-29T00:59:16.395Z,75.8
2018-06-29T01:00:16.735Z,75.1
2018-06-29T01:01:16.734Z,74.5
2018-06-29T01:02:16.989Z,75.2
2018-06-29T01:03:17.247Z,75.5
2018-06-29T01:04:16.502Z,75.5
2018-06-29T01:05:16.764Z,75.1
2018-06-29T01:06:17.026Z,74.0
2018-06-29T01:07:16.309Z,74.7
2018-06-29T01:08:16.726Z,74.8
2018-06-29T01:09:17.070Z,75.2
2018-06-29T01:10:16.354Z,74.8
2018-06-29T01:11:16.407Z,76.2
2018-06-29T01:12:16.661Z,75.8
2018-06-29T01:13:16.918Z,76.0
2018-06-29T01:14:17.182Z,74.8
2018-06-29T01:15:16.446Z,74.5
2018-06-29T01:16:16.706Z,75.3
2018-06-29T01:17:16.964Z,75.2
2018-06-29T01:18:17.226Z,75.4
2018-06-29T01:19:16.485Z,76.5
2018-06-29T01:20:16.755Z,76.3
2018-06-29T01:21:16.802Z,76.6
2018-06-29T01:22:17.084Z,76.4
2018-06-29T01:23:16.341Z,76.8
2018-06-29T01:24:16.606Z,77.5
2018-06-29T01:25:16.868Z,78.4
2018-06-29T01:26:17.130Z,79.0
2018-06-29T01:27:16.386Z,80.0
2018-06-29T01:28:16.649Z,80.8
2018-06-29T01:29:16.907Z,82.1
2018-06-29T01:30:17.182Z,82.3
2018-06-29T01:31:17.220Z,83.3
2018-06-29T01:32:16.479Z,83.5
2018-06-29T01:33:16.742Z,84.4
2018-06-29T01:34:17.011Z,84.8
2018-06-29T01:35:16.267Z,85.9
2018-06-29T01:36:16.526Z,86.0
2018-06-29T01:37:16.795Z,86.3
2018-06-29T01:38:17.061Z,87.0
2018-06-29T01:39:16.318Z,87.1
2018-06-29T01:40:16.609Z,87.1
2018-06-29T01:41:16.634Z,87.7
2018-06-29T01:42:16.911Z,87.9
2018-06-29T01:43:17.180Z,88.5
2018-06-29T01:44:16.447Z,88.5
2018-06-29T01:45:16.707Z,89.0
2018-06-29T01:46:16.969Z,89.3
2018-06-29T01:47:17.233Z,90.1
2018-06-29T01:48:16.485Z,90.1
2018-06-29T01:49:16.759Z,90.2
2018-06-29T01:50:17.034Z,90.4
2018-06-29T01:51:17.088Z,89.8
2018-06-29T01:52:16.513Z,90.1
2018-06-29T01:53:16.796Z,90.0
2018-06-29T01:54:17.067Z,89.9
2018-06-29T01:55:16.324Z,90.5
2018-06-29T01:56:16.586Z,90.7
2018-06-29T01:57:16.839Z,90.9
2018-06-29T01:58:17.100Z,91.2
2018-06-29T01:59:16.375Z,91.2
2018-06-29T02:00:16.652Z,91.5
2018-06-29T02:01:16.697Z,91.7
2018-06-29T02:02:16.965Z,91.7
2018-06-29T02:03:17.243Z,91.9
2018-06-29T02:04:16.507Z,91.6
2018-06-29T02:05:16.775Z,91.3
2018-06-29T02:06:17.046Z,91.3
2018-06-29T02:07:16.311Z,91.4
2018-06-29T02:08:16.571Z,91.5
2018-06-29T02:09:16.841Z,91.6
2018-06-29T02:10:17.140Z,91.8
2018-06-29T02:11:17.169Z,91.7
2018-06-29T02:12:16.418Z,92.0
2018-06-29T02:13:16.682Z,92.2
2018-06-29T02:14:16.277Z,92.2
2018-06-29T02:15:16.548Z,92.2
2018-06-29T02:16:16.813Z,92.2
2018-06-29T02:17:17.079Z,92.4
2018-06-29T02:18:16.342Z,92.6
2018-06-29T02:19:16.604Z,92.3
2018-06-29T02:20:16.886Z,92.3
2018-06-29T02:21:16.927Z,92.3
2018-06-29T02:22:17.190Z,92.3
2018-06-29T02:23:16.454Z,92.3
2018-06-29T02:24:16.722Z,92.7
2018-06-29T02:25:16.982Z,92.7
2018-06-29T02:26:17.271Z,92.8
2018-06-29T02:27:16.534Z,93.0
2018-06-29T02:28:16.806Z,93.0
2018-06-29T02:29:17.069Z,93.2
2018-06-29T02:30:16.345Z,93.1
2018-06-29T02:31:16.381Z,93.2
2018-06-29T02:32:16.635Z,93.1
2018-06-29T02:33:16.893Z,93.2
2018-06-29T02:34:17.156Z,93.3
2018-06-29T02:35:16.423Z,93.2
2018-06-29T02:36:16.680Z,93.2
2018-06-29T02:37:16.949Z,93.3
2018-06-29T02:38:17.477Z,93.3
2018-06-29T02:39:16.750Z,93.3
2018-06-29T02:40:17.021Z,93.5
2018-06-29T02:41:17.074Z,93.3
2018-06-29T02:42:16.367Z,93.4
2018-06-29T02:43:16.627Z,93.3
2018-06-29T02:44:16.890Z,93.3
2018-06-29T02:45:17.162Z,93.4
2018-06-29T02:46:16.444Z,93.5
2018-06-29T02:47:16.701Z,93.6
2018-06-29T02:48:16.980Z,93.5
2018-06-29T02:49:17.246Z,93.7
2018-06-29T02:50:16.514Z,93.8
2018-06-29T02:51:16.562Z,93.8
2018-06-29T02:52:16.831Z,93.9
2018-06-29T02:53:17.100Z,94.0
2018-06-29T02:54:16.364Z,94.1
2018-06-29T02:55:16.627Z,94.2
2018-06-29T02:56:16.908Z,94.2
2018-06-29T02:57:17.188Z,94.2
2018-06-29T02:58:16.451Z,93.6
2018-06-29T02:59:16.732Z,93.2
2018-06-29T03:00:17.015Z,93.1
2018-06-29T03:01:17.086Z,92.9
2018-06-29T03:02:16.347Z,92.4
2018-06-29T03:03:16.621Z,92.7
2018-06-29T03:04:16.889Z,92.5
2018-06-29T03:05:17.147Z,92.6
2018-06-29T03:06:16.418Z,92.5
2018-06-29T03:07:16.698Z,92.7
2018-06-29T03:08:16.979Z,92.5
2018-06-29T03:09:17.250Z,92.7
2018-06-29T03:10:16.526Z,92.6
2018-06-29T03:11:16.574Z,92.8
2018-06-29T03:12:16.842Z,93.0
2018-06-29T03:13:17.124Z,93.2
2018-06-29T03:14:16.397Z,93.2
2018-06-29T03:15:16.657Z,93.2
2018-06-29T03:16:16.918Z,93.2
2018-06-29T03:17:17.177Z,93.2
2018-06-29T03:18:16.442Z,92.6
2018-06-29T03:19:16.708Z,92.2
2018-06-29T03:20:16.969Z,92.2
2018-06-29T03:21:17.017Z,92.2
2018-06-29T03:22:16.280Z,92.2
2018-06-29T03:23:16.541Z,92.2
2018-06-29T03:24:16.813Z,92.2
2018-06-29T03:25:17.211Z,92.2
2018-06-29T03:26:16.557Z,92.3
2018-06-29T03:27:16.815Z,92.2
2018-06-29T03:28:17.080Z,92.3
2018-06-29T03:29:16.358Z,92.2
2018-06-29T03:30:16.641Z,92.3
2018-06-29T03:31:16.689Z,92.4
2018-06-29T03:32:16.959Z,92.6
2018-06-29T03:33:17.226Z,92.7
2018-06-29T03:34:16.496Z,92.8
2018-06-29T03:35:16.756Z,92.5
2018-06-29T03:36:17.010Z,92.4
2018-06-29T03:37:16.273Z,92.2
2018-06-29T03:38:16.542Z,92.2
2018-06-29T03:39:16.800Z,92.3
2018-06-29T03:40:17.181Z,92.3
2018-06-29T03:41:17.134Z,92.3
2018-06-29T03:42:16.405Z,92.1
2018-06-29T03:43:16.669Z,92.3
2018-06-29T03:44:16.946Z,92.0
2018-06-29T03:45:17.234Z,92.2
2018-06-29T03:46:16.501Z,92.1
2018-06-29T03:47:16.760Z,92.2
2018-06-29T03:48:17.023Z,92.3
2018-06-29T03:49:16.277Z,92.3
2018-06-29T03:50:16.544Z,92.2
2018-06-29T03:51:16.598Z,92.0
2018-06-29T03:52:16.870Z,92.1
2018-06-29T03:53:17.148Z,92.0
2018-06-29T03:54:16.406Z,91.9
2018-06-29T03:55:16.674Z,92.0
2018-06-29T03:56:16.942Z,92.0
2018-06-29T03:57:17.199Z,92.2
2018-06-29T03:58:16.458Z,92.2
2018-06-29T03:59:16.713Z,92.2
2018-06-29T04:00:16.990Z,92.2
2018-06-29T04:01:17.020Z,92.0
2018-06-29T04:02:16.284Z,92.2
2018-06-29T04:03:16.560Z,92.3
2018-06-29T04:04:16.823Z,92.5
2018-06-29T04:05:17.084Z,92.6
2018-06-29T04:06:16.345Z,92.4
2018-06-29T04:07:16.617Z,92.7
2018-06-29T04:08:16.882Z,92.8
2018-06-29T04:09:17.156Z,92.8
2018-06-29T04:10:16.424Z,92.7
2018-06-29T04:11:16.481Z,92.7
2018-06-29T04:12:16.743Z,92.7
2018-06-29T04:13:17.013Z,92.8
2018-06-29T04:14:16.274Z,92.8
2018-06-29T04:15:16.532Z,92.4
2018-06-29T04:16:16.796Z,92.2
2018-06-29T04:17:17.236Z,92.2
2018-06-29T04:18:16.494Z,92.3
2018-06-29T04:19:16.752Z,92.3
2018-06-29T04:20:17.017Z,92.2
2018-06-29T04:21:17.074Z,92.2
2018-06-29T04:22:16.336Z,92.1
2018-06-29T04:23:16.598Z,92.3
2018-06-29T04:24:16.873Z,92.3
2018-06-29T04:25:17.158Z,92.3
2018-06-29T04:26:16.435Z,92.8
2018-06-29T04:27:16.692Z,92.7
2018-06-29T04:28:16.985Z,92.5
2018-06-29T04:29:17.240Z,92.8
2018-06-29T04:30:16.503Z,92.8
2018-06-29T04:31:16.568Z,92.6
2018-06-29T04:32:16.836Z,92.8
2018-06-29T04:33:17.119Z,92.8
2018-06-29T04:34:16.381Z,92.7
2018-06-29T04:35:16.645Z,92.2
2018-06-29T04:36:16.909Z,92.5
2018-06-29T04:37:17.224Z,92.5
2018-06-29T04:38:16.491Z,92.7
2018-06-29T04:39:16.761Z,92.4
2018-06-29T04:40:17.031Z,92.1
2018-06-29T04:41:17.082Z,92.3
2018-06-29T04:42:16.341Z,92.4
2018-06-29T04:43:16.612Z,91.8
2018-06-29T04:44:16.868Z,91.8
2018-06-29T04:45:17.132Z,92.1
2018-06-29T04:46:16.393Z,92.2
2018-06-29T04:47:16.656Z,92.2
2018-06-29T04:48:16.915Z,92.1
2018-06-29T04:49:17.576Z,92.0
2018-06-29T04:50:16.905Z,92.0
2018-06-29T04:51:16.963Z,91.7
2018-06-29T04:52:17.223Z,91.8
2018-06-29T04:53:16.565Z,92.1
2018-06-29T04:54:16.832Z,91.6
2018-06-29T04:55:17.090Z,91.5
2018-06-29T04:56:16.346Z,91.5
2018-06-29T04:57:16.616Z,91.2
2018-06-29T04:58:16.880Z,91.0
2018-06-29T04:59:17.158Z,91.3
2018-06-29T05:00:16.446Z,90.6
2018-06-29T05:01:16.491Z,90.6
2018-06-29T05:02:16.751Z,90.6
2018-06-29T05:03:17.018Z,90.7
2018-06-29T05:04:16.272Z,90.6
2018-06-29T05:05:16.554Z,90.2
2018-06-29T05:06:16.820Z,89.3
2018-06-29T05:07:17.077Z,89.2
2018-06-29T05:08:16.332Z,89.2
2018-06-29T05:09:16.592Z,89.2
2018-06-29T05:10:16.861Z,89.1
2018-06-29T05:11:16.911Z,88.9
2018-06-29T05:12:17.176Z,88.9
2018-06-29T05:13:16.447Z,88.8
2018-06-29T05:14:16.716Z,88.8
2018-06-29T05:15:16.988Z,88.9
2018-06-29T05:16:17.248Z,89.2
2018-06-29T05:17:16.508Z,88.8
2018-06-29T05:18:16.760Z,89.0
2018-06-29T05:19:17.012Z,88.2
2018-06-29T05:20:16.295Z,88.1
2018-06-29T05:21:16.345Z,88.2
2018-06-29T05:22:16.610Z,88.0
2018-06-29T05:23:16.867Z,88.0
2018-06-29T05:24:17.141Z,87.9
2018-06-29T05:25:16.405Z,87.7
2018-06-29T05:26:16.674Z,87.7
2018-06-29T05:27:16.943Z,87.5
2018-06-29T05:28:17.216Z,87.1
2018-06-29T05:29:16.473Z,87.0
2018-06-29T05:30:16.731Z,87.3
2018-06-29T05:31:16.802Z,87.0
2018-06-29T05:32:17.055Z,86.7
2018-06-29T05:33:16.321Z,86.5
2018-06-29T05:34:16.582Z,86.7
2018-06-29T05:35:16.868Z,86.3
2018-06-29T05:36:17.425Z,86.4
2018-06-29T05:37:16.694Z,86.4
2018-06-29T05:38:16.970Z,86.2
2018-06-29T05:39:17.240Z,86.2
2018-06-29T05:40:16.507Z,86.0
2018-06-29T05:41:16.665Z,86.2
2018-06-29T05:42:16.951Z,86.3
2018-06-29T05:43:17.221Z,85.9
2018-06-29T05:44:16.492Z,85.5
2018-06-29T05:45:16.767Z,85.0
2018-06-29T05:46:17.205Z,85.0
2018-06-29T05:47:16.553Z,84.9
2018-06-29T05:48:16.814Z,84.6
2018-06-29T05:49:17.234Z,84.2
2018-06-29T05:50:16.524Z,84.5
2018-06-29T05:51:16.568Z,84.3
2018-06-29T05:52:17.183Z,84.2
2018-06-29T05:53:16.457Z,84.2
2018-06-29T05:54:16.724Z,84.6
2018-06-29T05:55:16.999Z,85.4
2018-06-29T05:56:16.267Z,85.2
2018-06-29T05:57:16.526Z,85.2
2018-06-29T05:58:16.799Z,84.0
2018-06-29T05:59:17.062Z,84.2
2018-06-29T06:00:16.340Z,83.8
2018-06-29T06:01:16.388Z,83.0
2018-06-29T06:02:16.651Z,83.1
2018-06-29T06:03:16.905Z,83.4
2018-06-29T06:04:17.181Z,83.3
2018-06-29T06:05:16.442Z,83.0
2018-06-29T06:06:16.706Z,82.4
2018-06-29T06:07:16.967Z,82.3
2018-06-29T06:08:17.241Z,82.3
2018-06-29T06:09:16.504Z,82.6
2018-06-29T06:10:16.766Z,82.5
2018-06-29T06:11:16.822Z,83.0
2018-06-29T06:12:17.075Z,83.2
2018-06-29T06:13:16.335Z,83.2
2018-06-29T06:14:16.637Z,83.2
2018-06-29T06:15:16.896Z,83.0
2018-06-29T06:16:17.150Z,83.2
2018-06-29T06:17:16.443Z,83.5
2018-06-29T06:18:16.707Z,83.7
2018-06-29T06:19:16.971Z,83.7
2018-06-29T06:20:17.258Z,84.0
2018-06-29T06:21:16.308Z,83.8
2018-06-29T06:22:16.588Z,84.2
2018-06-29T06:23:16.845Z,84.2
2018-06-29T06:24:17.133Z,84.4
2018-06-29T06:25:16.408Z,84.4
2018-06-29T06:26:16.681Z,83.2
2018-06-29T06:27:16.943Z,83.3
2018-06-29T06:28:17.202Z,83.1
2018-06-29T06:29:16.460Z,83.3
2018-06-29T06:30:16.732Z,83.5
2018-06-29T06:31:16.794Z,83.4
2018-06-29T06:32:17.066Z,83.3
2018-06-29T06:33:16.483Z,83.5
2018-06-29T06:34:16.814Z,83.5
2018-06-29T06:35:17.092Z,82.7
2018-06-29T06:36:16.355Z,82.7
2018-06-29T06:37:16.611Z,82.9
2018-06-29T06:38:16.873Z,83.0
2018-06-29T06:39:17.143Z,83.2
2018-06-29T06:40:16.425Z,82.6
2018-06-29T06:41:16.466Z,82.2
2018-06-29T06:42:16.721Z,81.2
2018-06-29T06:43:16.977Z,81.4
2018-06-29T06:44:17.244Z,81.2
2018-06-29T06:45:16.519Z,81.2
2018-06-29T06:46:16.780Z,81.5
2018-06-29T06:47:17.043Z,80.3
2018-06-29T06:48:16.318Z,80.3
2018-06-29T06:49:16.589Z,79.9
2018-06-29T06:50:16.851Z,79.9
2018-06-29T06:51:16.930Z,79.9
2018-06-29T06:52:17.200Z,80.6
2018-06-29T06:53:16.462Z,80.0
2018-06-29T06:54:16.730Z,79.6
2018-06-29T06:55:16.984Z,79.8
2018-06-29T06:56:17.250Z,79.8
2018-06-29T06:57:16.510Z,79.7
2018-06-29T06:58:16.778Z,79.8
2018-06-29T06:59:17.051Z,79.8
2018-06-29T07:00:16.338Z,78.6
2018-06-29T07:01:16.386Z,78.2
2018-06-29T07:02:16.651Z,78.6
2018-06-29T07:03:16.927Z,78.2
2018-06-29T07:04:17.200Z,77.9
2018-06-29T07:05:16.461Z,77.2
2018-06-29T07:06:16.716Z,76.9
2018-06-29T07:07:16.977Z,76.7
2018-06-29T07:08:17.230Z,77.0
2018-06-29T07:09:16.498Z,76.7
2018-06-29T07:10:16.762Z,76.1
2018-06-29T07:11:16.808Z,76.5
2018-06-29T07:12:17.087Z,75.5
2018-06-29T07:13:16.360Z,75.5
2018-06-29T07:14:16.621Z,75.0
2018-06-29T07:15:16.890Z,74.8
2018-06-29T07:16:17.160Z,74.8
2018-06-29T07:17:16.417Z,75.2
2018-06-29T07:18:16.824Z,75.2
2018-06-29T07:19:17.097Z,74.5
2018-06-29T07:20:16.359Z,74.2
2018-06-29T07:21:16.429Z,74.2
2018-06-29T07:22:16.690Z,73.6
2018-06-29T07:23:16.946Z,73.3
2018-06-29T07:24:17.205Z,74.9
2018-06-29T07:25:16.464Z,72.3
2018-06-29T07:26:16.723Z,72.3
2018-06-29T07:27:16.980Z,72.7
2018-06-29T07:28:17.271Z,73.2
2018-06-29T07:29:16.533Z,72.8
2018-06-29T07:30:16.813Z,72.1
2018-06-29T07:31:16.849Z,73.2
2018-06-29T07:32:17.124Z,71.3
2018-06-29T07:33:16.382Z,72.2
2018-06-29T07:34:16.643Z,73.6
2018-06-29T07:35:16.916Z,70.5
2018-06-29T07:36:17.184Z,71.5
2018-06-29T07:37:16.454Z,71.0
2018-06-29T07:38:16.714Z,71.0
2018-06-29T07:39:16.977Z,71.3
2018-06-29T07:40:17.240Z,71.0
2018-06-29T07:41:16.300Z,70.3
2018-06-29T07:42:16.558Z,70.4
2018-06-29T07:43:16.813Z,71.7
2018-06-29T07:44:17.094Z,71.1
2018-06-29T07:45:16.358Z,69.8
2018-06-29T07:46:16.618Z,69.3
2018-06-29T07:47:16.884Z,69.4
2018-06-29T07:48:17.148Z,68.0
2018-06-29T07:49:16.417Z,69.9
2018-06-29T07:50:16.693Z,68.9
2018-06-29T07:51:16.727Z,68.2
2018-06-29T07:52:16.997Z,67.6
2018-06-29T07:53:16.275Z,69.1
2018-06-29T07:54:16.543Z,67.3
2018-06-29T07:55:16.807Z,68.2
2018-06-29T07:56:17.222Z,67.6
2018-06-29T07:57:16.501Z,66.3
2018-06-29T07:58:17.139Z,65.4
2018-06-29T07:59:16.441Z,65.5
2018-06-29T08:00:17.953Z,65.7
2018-06-29T08:01:16.772Z,66.1
2018-06-29T08:02:17.042Z,65.2
2018-06-29T08:03:16.304Z,66.1
2018-06-29T08:04:16.570Z,64.8
2018-06-29T08:05:16.827Z,65.2
2018-06-29T08:06:17.086Z,65.0
2018-06-29T08:07:16.346Z,64.8
2018-06-29T08:08:16.611Z,66.7
2018-06-29T08:09:16.877Z,64.5
2018-06-29T08:10:17.148Z,64.8
2018-06-29T08:11:17.231Z,66.4
2018-06-29T08:12:16.515Z,65.2
2018-06-29T08:13:16.770Z,66.3
2018-06-29T08:14:17.030Z,65.3
2018-06-29T08:15:16.297Z,65.4
2018-06-29T08:16:16.561Z,66.2
2018-06-29T08:17:16.830Z,64.5
2018-06-29T08:18:17.098Z,64.8
2018-06-29T08:19:16.366Z,66.5
2018-06-29T08:20:16.636Z,65.2
2018-06-29T08:21:16.683Z,64.4
2018-06-29T08:22:16.938Z,64.8
2018-06-29T08:23:17.207Z,65.8
2018-06-29T08:24:16.645Z,65.8
2018-06-29T08:25:16.921Z,65.5
2018-06-29T08:26:17.174Z,64.7
2018-06-29T08:27:16.453Z,64.2
2018-06-29T08:28:16.716Z,64.8
2018-06-29T08:29:16.979Z,65.2
2018-06-29T08:30:17.267Z,64.8
2018-06-29T08:31:16.346Z,65.0
2018-06-29T08:32:16.621Z,65.4
2018-06-29T08:33:16.893Z,64.5
2018-06-29T08:34:17.156Z,64.2
2018-06-29T08:35:16.413Z,64.2
2018-06-29T08:36:16.671Z,63.6
2018-06-29T08:37:16.934Z,62.9
2018-06-29T08:38:17.210Z,63.2
2018-06-29T08:39:16.470Z,62.1
2018-06-29T08:40:16.747Z,61.8
2018-06-29T08:41:16.776Z,61.0
2018-06-29T08:42:17.046Z,60.9
2018-06-29T08:43:16.306Z,61.5
2018-06-29T08:44:16.710Z,59.7
2018-06-29T08:45:16.965Z,59.1
2018-06-29T08:46:17.232Z,58.6
2018-06-29T08:47:16.488Z,56.5
2018-06-29T08:48:16.773Z,56.8
2018-06-29T08:49:17.033Z,57.5
2018-06-29T08:50:16.305Z,54.1
2018-06-29T08:51:16.346Z,52.5
2018-06-29T08:52:16.775Z,53.1
2018-06-29T08:53:17.096Z,54.2
2018-06-29T08:54:16.356Z,51.5
2018-06-29T08:55:16.627Z,53.0
2018-06-29T08:56:16.891Z,50.8
2018-06-29T08:57:17.156Z,49.5
2018-06-29T08:58:16.434Z,50.0
2018-06-29T08:59:16.699Z,50.6
2018-06-29T09:00:16.973Z,50.8
2018-06-29T09:01:17.037Z,50.2
2018-06-29T09:02:16.291Z,49.1
2018-06-29T09:03:16.558Z,49.7
2018-06-29T09:04:16.837Z,48.8
2018-06-29T09:05:17.104Z,49.3
2018-06-29T09:06:16.370Z,49.5
2018-06-29T09:07:16.637Z,48.0
2018-06-29T09:08:16.894Z,47.9
2018-06-29T09:09:17.161Z,47.8
2018-06-29T09:10:16.426Z,48.2
2018-06-29T09:11:16.492Z,49.3
2018-06-29T09:12:16.764Z,47.2
2018-06-29T09:13:17.025Z,48.1
2018-06-29T09:14:16.282Z,48.7
2018-06-29T09:15:16.550Z,47.5
2018-06-29T09:16:16.821Z,49.0
2018-06-29T09:17:17.087Z,47.1
2018-06-29T09:18:16.344Z,48.5
2018-06-29T09:19:16.602Z,47.5
2018-06-29T09:20:17.150Z,47.2
2018-06-29T09:21:16.909Z,47.8
2018-06-29T09:22:17.174Z,48.4
2018-06-29T09:23:16.443Z,48.8
2018-06-29T09:24:16.815Z,48.0
2018-06-29T09:25:17.110Z,46.5
2018-06-29T09:26:16.385Z,45.2
2018-06-29T09:27:16.654Z,46.1
2018-06-29T09:28:16.920Z,45.0
2018-06-29T09:29:17.182Z,44.5
2018-06-29T09:30:16.461Z,45.1
2018-06-29T09:31:16.525Z,46.0
2018-06-29T09:32:16.789Z,44.1
2018-06-29T09:33:17.057Z,44.0
2018-06-29T09:34:16.320Z,44.1
2018-06-29T09:35:16.580Z,44.8
2018-06-29T09:36:16.929Z,44.9
2018-06-29T09:37:17.195Z,42.9
2018-06-29T09:38:16.466Z,46.6
2018-06-29T09:39:16.733Z,43.5
2018-06-29T09:40:17.022Z,46.2
2018-06-29T09:41:17.052Z,43.5
2018-06-29T09:42:16.323Z,43.8
2018-06-29T09:43:16.585Z,44.4
2018-06-29T09:44:16.843Z,44.0
2018-06-29T09:45:17.114Z,42.6
2018-06-29T09:46:16.383Z,43.2
2018-06-29T09:47:16.642Z,43.2
2018-06-29T09:48:16.924Z,44.1
2018-06-29T09:49:17.444Z,44.1
2018-06-29T09:50:16.702Z,42.7
2018-06-29T09:51:16.743Z,42.2
2018-06-29T09:52:17.014Z,40.6
2018-06-29T09:53:16.275Z,41.4
2018-06-29T09:54:16.531Z,43.0
2018-06-29T09:55:16.791Z,42.0
2018-06-29T09:56:17.048Z,41.8
2018-06-29T09:57:16.306Z,43.0
2018-06-29T09:58:16.563Z,42.7
2018-06-29T09:59:16.831Z,41.3
2018-06-29T10:00:17.106Z,45.7
2018-06-29T10:01:17.332Z,42.6
2018-06-29T10:02:16.660Z,41.8
2018-06-29T10:03:16.933Z,40.1
2018-06-29T10:04:17.201Z,40.5
2018-06-29T10:05:16.455Z,42.5
2018-06-29T10:06:16.713Z,40.6
2018-06-29T10:07:16.975Z,40.5
2018-06-29T10:08:17.520Z,41.0
2018-06-29T10:09:16.785Z,43.4
2018-06-29T10:10:17.060Z,41.2
2018-06-29T10:11:17.118Z,41.5
2018-06-29T10:12:16.381Z,41.5
2018-06-29T10:13:16.650Z,40.9
2018-06-29T10:14:17.142Z,40.6
2018-06-29T10:15:16.509Z,41.9
2018-06-29T10:16:16.770Z,42.3
2018-06-29T10:17:17.038Z,41.6
2018-06-29T10:18:16.304Z,42.1
2018-06-29T10:19:16.562Z,41.5
2018-06-29T10:20:16.952Z,41.4
2018-06-29T10:21:16.885Z,41.1
2018-06-29T10:22:17.371Z,40.4
2018-06-29T10:23:16.741Z,39.3
2018-06-29T10:24:17.108Z,40.1
2018-06-29T10:25:16.647Z,39.6
2018-06-29T10:26:16.921Z,40.5
2018-06-29T10:27:17.201Z,38.6
2018-06-29T10:28:16.689Z,39.0
2018-06-29T10:29:16.976Z,38.5
2018-06-29T10:30:17.254Z,38.0
2018-06-29T10:31:16.318Z,39.6
2018-06-29T10:32:16.592Z,39.1
2018-06-29T10:33:16.848Z,37.2
2018-06-29T10:34:17.110Z,38.9
2018-06-29T10:35:16.372Z,37.0
2018-06-29T10:36:16.644Z,38.9
2018-06-29T10:37:16.909Z,38.1
2018-06-29T10:38:17.199Z,39.2
2018-06-29T10:39:16.467Z,38.1
2018-06-29T10:40:16.764Z,37.9
2018-06-29T10:41:16.788Z,37.2
2018-06-29T10:42:17.041Z,37.9
2018-06-29T10:43:16.306Z,38.7
2018-06-29T10:44:16.561Z,37.5
2018-06-29T10:45:16.833Z,37.9
2018-06-29T10:46:17.103Z,38.3
2018-06-29T10:47:16.364Z,37.0
2018-06-29T10:48:16.632Z,38.8
2018-06-29T10:49:16.890Z,37.4
2018-06-29T10:50:17.171Z,37.0
2018-06-29T10:51:17.198Z,38.2
2018-06-29T10:52:16.445Z,37.4
2018-06-29T10:53:16.705Z,38.0
2018-06-29T10:54:16.978Z,38.5
2018-06-29T10:55:17.245Z,38.4
2018-06-29T10:56:16.509Z,39.5
2018-06-29T10:57:16.761Z,39.0
2018-06-29T10:58:17.024Z,38.4
2018-06-29T10:59:16.284Z,38.2
2018-06-29T11:00:16.557Z,36.5
2018-06-29T11:01:16.605Z,37.2
2018-06-29T11:02:16.864Z,36.5
2018-06-29T11:03:17.125Z,37.5
2018-06-29T11:04:16.390Z,36.9
2018-06-29T11:05:16.661Z,36.5
2018-06-29T11:06:16.930Z,36.4
2018-06-29T11:07:17.198Z,36.9
2018-06-29T11:08:16.461Z,37.8
2018-06-29T11:09:16.721Z,37.1
2018-06-29T11:10:16.980Z,36.9
2018-06-29T11:11:17.082Z,36.9
2018-06-29T11:12:16.351Z,35.9
2018-06-29T11:13:16.628Z,35.9
2018-06-29T11:14:16.882Z,36.4
2018-06-29T11:15:17.149Z,37.2
2018-06-29T11:16:16.414Z,37.1
2018-06-29T11:17:16.669Z,37.3
2018-06-29T11:18:16.930Z,37.0
2018-06-29T11:19:17.200Z,36.8
2018-06-29T11:20:16.458Z,36.6
2018-06-29T11:21:16.546Z,35.6
2018-06-29T11:22:16.822Z,35.7
2018-06-29T11:23:17.099Z,35.9
2018-06-29T11:24:16.356Z,34.9
2018-06-29T11:25:16.617Z,35.4
2018-06-29T11:26:16.878Z,36.0
2018-06-29T11:27:17.158Z,36.9
2018-06-29T11:28:16.424Z,37.0
2018-06-29T11:29:16.688Z,36.9
2018-06-29T11:30:17.018Z,37.1
2018-06-29T11:31:17.019Z,38.9
2018-06-29T11:32:16.295Z,38.4
2018-06-29T11:33:16.559Z,38.8
2018-06-29T11:34:16.819Z,38.9
2018-06-29T11:35:17.092Z,40.1
2018-06-29T11:36:16.359Z,39.6
2018-06-29T11:37:16.616Z,39.8
2018-06-29T11:38:16.888Z,39.0
2018-06-29T11:39:17.159Z,39.1
2018-06-29T11:40:16.429Z,38.8
2018-06-29T11:41:16.494Z,38.0
2018-06-29T11:42:16.771Z,38.1
2018-06-29T11:43:17.039Z,38.1
2018-06-29T11:44:16.487Z,37.6
2018-06-29T11:45:16.770Z,38.0
2018-06-29T11:46:17.030Z,37.7
2018-06-29T11:47:16.294Z,38.8
2018-06-29T11:48:16.816Z,39.0
2018-06-29T11:49:17.078Z,39.0
2018-06-29T11:50:16.354Z,40.2
2018-06-29T11:51:16.408Z,40.5
2018-06-29T11:52:16.674Z,40.6
2018-06-29T11:53:16.948Z,40.2
2018-06-29T11:54:17.206Z,40.5
2018-06-29T11:55:16.472Z,40.3
2018-06-29T11:56:16.731Z,41.0
2018-06-29T11:57:16.992Z,40.8
2018-06-29T11:58:17.283Z,40.1
2018-06-29T11:59:16.549Z,41.3
2018-06-29T12:00:16.811Z,42.0
2018-06-29T12:01:16.886Z,41.7
2018-06-29T12:02:17.150Z,41.4
2018-06-29T12:03:16.414Z,40.7
2018-06-29T12:04:16.685Z,41.2
2018-06-29T12:05:16.959Z,41.2
2018-06-29T12:06:17.232Z,40.9
2018-06-29T12:07:16.563Z,40.4
2018-06-29T12:08:16.896Z,40.2
2018-06-29T12:09:17.169Z,40.7
2018-06-29T12:10:16.437Z,40.5
2018-06-29T12:11:16.488Z,41.1
2018-06-29T12:12:16.753Z,40.2
2018-06-29T12:13:17.021Z,40.5
2018-06-29T12:14:16.309Z,41.1
2018-06-29T12:15:16.587Z,40.7
2018-06-29T12:16:16.854Z,41.6
2018-06-29T12:17:17.116Z,40.9
2018-06-29T12:18:16.377Z,41.0
2018-06-29T12:19:16.644Z,40.5
2018-06-29T12:20:16.914Z,40.8
2018-06-29T12:21:16.962Z,42.1
2018-06-29T12:22:17.231Z,41.8
2018-06-29T12:23:16.602Z,42.1
2018-06-29T12:24:16.886Z,42.2
2018-06-29T12:25:17.157Z,41.9
2018-06-29T12:26:16.425Z,41.4
2018-06-29T12:27:16.699Z,41.6
2018-06-29T12:28:16.963Z,41.2
2018-06-29T12:29:17.240Z,40.6
2018-06-29T12:30:16.512Z,41.2
2018-06-29T12:31:16.566Z,40.7
2018-06-29T12:32:16.824Z,41.4
2018-06-29T12:33:17.083Z,40.7
2018-06-29T12:34:16.351Z,40.2
2018-06-29T12:35:16.610Z,39.9
2018-06-29T12:36:16.874Z,40.0
2018-06-29T12:37:17.137Z,40.9
2018-06-29T12:38:16.395Z,39.8
2018-06-29T12:39:16.655Z,40.0
2018-06-29T12:40:16.918Z,40.6
2018-06-29T12:41:17.017Z,40.5
2018-06-29T12:42:16.274Z,41.3
2018-06-29T12:43:16.549Z,40.5
2018-06-29T12:44:16.810Z,40.2
2018-06-29T12:45:17.102Z,40.4
2018-06-29T12:46:16.378Z,40.5
2018-06-29T12:47:16.647Z,40.0
2018-06-29T12:48:16.907Z,40.1
2018-06-29T12:49:17.175Z,40.0
2018-06-29T12:50:16.463Z,40.5
2018-06-29T12:51:16.520Z,40.3
2018-06-29T12:52:16.797Z,39.9
2018-06-29T12:53:17.065Z,40.0
2018-06-29T12:54:16.330Z,41.3
2018-06-29T12:55:16.592Z,40.2
2018-06-29T12:56:16.848Z,39.7
2018-06-29T12:57:17.156Z,39.4
2018-06-29T12:58:16.419Z,40.5
2018-06-29T12:59:16.683Z,39.8
2018-06-29T13:00:16.955Z,40.5
2018-06-29T13:01:17.001Z,41.0
2018-06-29T13:02:16.261Z,40.0
2018-06-29T13:03:16.519Z,39.9
2018-06-29T13:04:16.778Z,40.8
2018-06-29T13:05:17.144Z,41.0
2018-06-29T13:06:16.413Z,39.5
2018-06-29T13:07:16.670Z,39.9
2018-06-29T13:08:16.930Z,39.9
2018-06-29T13:09:17.631Z,40.1
2018-06-29T13:10:16.908Z,40.5
2018-06-29T13:11:16.967Z,39.9
2018-06-29T13:12:17.234Z,40.2
2018-06-29T13:13:16.497Z,40.2
2018-06-29T13:14:16.878Z,40.1
2018-06-29T13:15:17.169Z,39.3
2018-06-29T13:16:16.437Z,39.7
2018-06-29T13:17:16.716Z,40.4
2018-06-29T13:18:16.978Z,40.0